sensor_id;sensor_type;location;lat;lon;timestamp;P1;durP1;ratioP1;P2;durP2;ratioP2
23472;SDS011;11909;52.516;13.564;2023-01-26T00:02:04;32.45;;;16.33;;
23472;SDS011;11909;52.516;13.564;2023-01-26T00:04:32;32.67;;;16.35;;
23472;SDS011;11909;52.516;13.564;2023-01-26T00:07:00;30.80;;;15.95;;
23472;SDS011;11909;52.516;13.564;2023-01-26T00:09:27;33.63;;;17.25;;
23472;SDS011;11909;52.516;13.564;2023-01-26T00:11:55;35.33;;;15.32;;
23472;SDS011;11909;52.516;13.564;2023-01-26T00:14:23;35.88;;;16.90;;
23472;SDS011;11909;52.516;13.564;2023-01-26T00:16:52;37.60;;;17.48;;
23472;SDS011;11909;52.516;13.564;2023-01-26T00:19:20;37.40;;;17.27;;
23472;SDS011;11909;52.516;13.564;2023-01-26T00:21:47;34.47;;;16.73;;
23472;SDS011;11909;52.516;13.564;2023-01-26T00:24:15;40.13;;;17.70;;
23472;SDS011;11909;52.516;13.564;2023-01-26T00:26:43;37.20;;;17.20;;
23472;SDS011;11909;52.516;13.564;2023-01-26T00:29:10;40.63;;;18.45;;
23472;SDS011;11909;52.516;13.564;2023-01-26T00:31:38;36.28;;;17.65;;
23472;SDS011;11909;52.516;13.564;2023-01-26T00:34:07;34.78;;;15.90;;
23472;SDS011;11909;52.516;13.564;2023-01-26T00:36:35;40.28;;;18.00;;
23472;SDS011;11909;52.516;13.564;2023-01-26T00:39:03;35.90;;;16.30;;
23472;SDS011;11909;52.516;13.564;2023-01-26T00:41:30;39.15;;;16.52;;
23472;SDS011;11909;52.516;13.564;2023-01-26T00:44:15;35.72;;;16.15;;
23472;SDS011;11909;52.516;13.564;2023-01-26T00:46:43;36.53;;;17.83;;
23472;SDS011;11909;52.516;13.564;2023-01-26T00:49:12;35.83;;;17.50;;
23472;SDS011;11909;52.516;13.564;2023-01-26T00:51:40;37.25;;;17.10;;
23472;SDS011;11909;52.516;13.564;2023-01-26T00:54:07;34.70;;;17.58;;
23472;SDS011;11909;52.516;13.564;2023-01-26T00:56:35;39.65;;;17.80;;
23472;SDS011;11909;52.516;13.564;2023-01-26T00:59:03;41.05;;;17.92;;
23472;SDS011;11909;52.516;13.564;2023-01-26T01:01:31;34.95;;;16.70;;
23472;SDS011;11909;52.516;13.564;2023-01-26T01:03:58;42.17;;;17.80;;
23472;SDS011;11909;52.516;13.564;2023-01-26T01:06:27;34.28;;;17.60;;
23472;SDS011;11909;52.516;13.564;2023-01-26T01:08:55;29.77;;;15.82;;
23472;SDS011;11909;52.516;13.564;2023-01-26T01:11:23;37.38;;;17.48;;
23472;SDS011;11909;52.516;13.564;2023-01-26T01:13:51;41.58;;;18.08;;
23472;SDS011;11909;52.516;13.564;2023-01-26T01:16:18;38.33;;;17.88;;
23472;SDS011;11909;52.516;13.564;2023-01-26T01:18:46;35.17;;;17.15;;
23472;SDS011;11909;52.516;13.564;2023-01-26T01:21:15;34.65;;;18.00;;
23472;SDS011;11909;52.516;13.564;2023-01-26T01:23:45;39.10;;;17.63;;
23472;SDS011;11909;52.516;13.564;2023-01-26T01:26:12;35.08;;;17.70;;
23472;SDS011;11909;52.516;13.564;2023-01-26T01:28:42;33.78;;;16.77;;
23472;SDS011;11909;52.516;13.564;2023-01-26T01:31:10;36.78;;;17.52;;
23472;SDS011;11909;52.516;13.564;2023-01-26T01:33:39;35.13;;;18.05;;
23472;SDS011;11909;52.516;13.564;2023-01-26T01:36:09;38.75;;;17.73;;
23472;SDS011;11909;52.516;13.564;2023-01-26T01:38:38;34.55;;;17.25;;
23472;SDS011;11909;52.516;13.564;2023-01-26T01:41:07;37.15;;;17.35;;
23472;SDS011;11909;52.516;13.564;2023-01-26T01:43:36;33.70;;;17.13;;
23472;SDS011;11909;52.516;13.564;2023-01-26T01:46:04;39.40;;;18.35;;
23472;SDS011;11909;52.516;13.564;2023-01-26T01:48:41;38.15;;;17.17;;
23472;SDS011;11909;52.516;13.564;2023-01-26T01:51:16;36.05;;;17.15;;
23472;SDS011;11909;52.516;13.564;2023-01-26T01:53:47;38.10;;;18.10;;
23472;SDS011;11909;52.516;13.564;2023-01-26T01:56:20;34.53;;;17.48;;
23472;SDS011;11909;52.516;13.564;2023-01-26T01:58:53;40.03;;;19.08;;
23472;SDS011;11909;52.516;13.564;2023-01-26T02:01:23;32.72;;;17.15;;
23472;SDS011;11909;52.516;13.564;2023-01-26T02:03:54;39.67;;;19.23;;
23472;SDS011;11909;52.516;13.564;2023-01-26T02:06:26;36.72;;;18.35;;
23472;SDS011;11909;52.516;13.564;2023-01-26T02:08:59;41.50;;;19.30;;
23472;SDS011;11909;52.516;13.564;2023-01-26T02:11:29;39.00;;;19.75;;
23472;SDS011;11909;52.516;13.564;2023-01-26T02:14:02;32.03;;;18.13;;
23472;SDS011;11909;52.516;13.564;2023-01-26T02:16:32;36.72;;;17.90;;
23472;SDS011;11909;52.516;13.564;2023-01-26T02:19:00;34.95;;;17.65;;
23472;SDS011;11909;52.516;13.564;2023-01-26T02:21:28;35.75;;;17.95;;
23472;SDS011;11909;52.516;13.564;2023-01-26T02:24:03;35.60;;;18.42;;
23472;SDS011;11909;52.516;13.564;2023-01-26T02:26:38;35.55;;;17.15;;
23472;SDS011;11909;52.516;13.564;2023-01-26T02:29:07;35.95;;;17.38;;
23472;SDS011;11909;52.516;13.564;2023-01-26T02:31:36;36.50;;;18.17;;
23472;SDS011;11909;52.516;13.564;2023-01-26T02:34:05;35.73;;;17.83;;
23472;SDS011;11909;52.516;13.564;2023-01-26T02:36:33;37.13;;;19.13;;
23472;SDS011;11909;52.516;13.564;2023-01-26T02:39:08;37.38;;;18.73;;
23472;SDS011;11909;52.516;13.564;2023-01-26T02:41:48;36.83;;;17.73;;
23472;SDS011;11909;52.516;13.564;2023-01-26T02:44:35;38.50;;;17.65;;
23472;SDS011;11909;52.516;13.564;2023-01-26T02:47:09;31.88;;;16.58;;
23472;SDS011;11909;52.516;13.564;2023-01-26T02:49:38;38.80;;;18.60;;
23472;SDS011;11909;52.516;13.564;2023-01-26T02:52:16;41.75;;;19.00;;
23472;SDS011;11909;52.516;13.564;2023-01-26T02:57:32;40.15;;;18.38;;
23472;SDS011;11909;52.516;13.564;2023-01-26T03:00:00;31.13;;;16.45;;
23472;SDS011;11909;52.516;13.564;2023-01-26T03:02:28;41.92;;;18.45;;
23472;SDS011;11909;52.516;13.564;2023-01-26T03:04:56;37.40;;;18.80;;
23472;SDS011;11909;52.516;13.564;2023-01-26T03:07:23;36.13;;;18.38;;
23472;SDS011;11909;52.516;13.564;2023-01-26T03:09:51;35.03;;;18.63;;
23472;SDS011;11909;52.516;13.564;2023-01-26T03:12:19;36.75;;;18.75;;
23472;SDS011;11909;52.516;13.564;2023-01-26T03:14:48;37.53;;;19.05;;
23472;SDS011;11909;52.516;13.564;2023-01-26T03:17:36;36.05;;;17.92;;
23472;SDS011;11909;52.516;13.564;2023-01-26T03:20:05;36.45;;;18.55;;
23472;SDS011;11909;52.516;13.564;2023-01-26T03:22:51;36.13;;;18.02;;
23472;SDS011;11909;52.516;13.564;2023-01-26T03:25:36;37.08;;;18.35;;
23472;SDS011;11909;52.516;13.564;2023-01-26T03:28:21;33.85;;;18.10;;
23472;SDS011;11909;52.516;13.564;2023-01-26T03:30:51;35.50;;;17.13;;
23472;SDS011;11909;52.516;13.564;2023-01-26T03:33:21;34.80;;;17.83;;
23472;SDS011;11909;52.516;13.564;2023-01-26T03:35:51;36.40;;;18.67;;
23472;SDS011;11909;52.516;13.564;2023-01-26T03:38:19;38.90;;;20.08;;
23472;SDS011;11909;52.516;13.564;2023-01-26T03:40:47;38.13;;;17.42;;
23472;SDS011;11909;52.516;13.564;2023-01-26T03:43:32;30.58;;;16.13;;
23472;SDS011;11909;52.516;13.564;2023-01-26T03:46:19;37.75;;;16.20;;
23472;SDS011;11909;52.516;13.564;2023-01-26T03:49:04;32.35;;;16.35;;
23472;SDS011;11909;52.516;13.564;2023-01-26T03:51:50;38.17;;;19.00;;
23472;SDS011;11909;52.516;13.564;2023-01-26T03:54:35;36.78;;;17.42;;
23472;SDS011;11909;52.516;13.564;2023-01-26T03:57:20;37.03;;;17.33;;
23472;SDS011;11909;52.516;13.564;2023-01-26T03:59:48;39.15;;;18.38;;
23472;SDS011;11909;52.516;13.564;2023-01-26T04:02:17;39.47;;;18.95;;
23472;SDS011;11909;52.516;13.564;2023-01-26T04:05:02;39.20;;;19.75;;
23472;SDS011;11909;52.516;13.564;2023-01-26T04:07:48;43.05;;;18.73;;
23472;SDS011;11909;52.516;13.564;2023-01-26T04:10:33;38.50;;;19.02;;
23472;SDS011;11909;52.516;13.564;2023-01-26T04:13:01;40.13;;;19.20;;
23472;SDS011;11909;52.516;13.564;2023-01-26T04:15:46;41.40;;;18.52;;
23472;SDS011;11909;52.516;13.564;2023-01-26T04:18:33;41.42;;;18.27;;
23472;SDS011;11909;52.516;13.564;2023-01-26T04:21:18;43.05;;;19.92;;
23472;SDS011;11909;52.516;13.564;2023-01-26T04:23:58;41.80;;;18.77;;
23472;SDS011;11909;52.516;13.564;2023-01-26T04:26:28;44.08;;;18.75;;
23472;SDS011;11909;52.516;13.564;2023-01-26T04:29:00;40.25;;;18.60;;
23472;SDS011;11909;52.516;13.564;2023-01-26T04:31:28;40.70;;;17.65;;
23472;SDS011;11909;52.516;13.564;2023-01-26T04:33:58;35.40;;;16.42;;
23472;SDS011;11909;52.516;13.564;2023-01-26T04:36:26;43.10;;;18.47;;
23472;SDS011;11909;52.516;13.564;2023-01-26T04:38:53;40.20;;;17.42;;
23472;SDS011;11909;52.516;13.564;2023-01-26T04:41:21;35.92;;;16.50;;
23472;SDS011;11909;52.516;13.564;2023-01-26T04:43:49;37.20;;;16.77;;
23472;SDS011;11909;52.516;13.564;2023-01-26T04:46:17;34.72;;;16.83;;
23472;SDS011;11909;52.516;13.564;2023-01-26T04:48:45;30.85;;;16.30;;
23472;SDS011;11909;52.516;13.564;2023-01-26T04:51:14;32.88;;;17.17;;
23472;SDS011;11909;52.516;13.564;2023-01-26T04:53:45;34.42;;;17.60;;
23472;SDS011;11909;52.516;13.564;2023-01-26T04:56:14;38.08;;;17.67;;
23472;SDS011;11909;52.516;13.564;2023-01-26T04:58:47;33.17;;;17.40;;
23472;SDS011;11909;52.516;13.564;2023-01-26T05:01:15;36.13;;;17.08;;
23472;SDS011;11909;52.516;13.564;2023-01-26T05:03:43;38.80;;;17.25;;
23472;SDS011;11909;52.516;13.564;2023-01-26T05:06:11;39.38;;;18.83;;
23472;SDS011;11909;52.516;13.564;2023-01-26T05:08:41;35.90;;;18.60;;
23472;SDS011;11909;52.516;13.564;2023-01-26T05:11:09;41.30;;;19.52;;
23472;SDS011;11909;52.516;13.564;2023-01-26T05:13:36;42.28;;;20.05;;
23472;SDS011;11909;52.516;13.564;2023-01-26T05:16:05;43.58;;;18.55;;
23472;SDS011;11909;52.516;13.564;2023-01-26T05:18:33;42.08;;;18.90;;
23472;SDS011;11909;52.516;13.564;2023-01-26T05:21:01;40.67;;;18.58;;
23472;SDS011;11909;52.516;13.564;2023-01-26T05:23:30;46.50;;;20.92;;
23472;SDS011;11909;52.516;13.564;2023-01-26T05:25:58;40.65;;;19.45;;
23472;SDS011;11909;52.516;13.564;2023-01-26T05:28:26;41.85;;;20.58;;
23472;SDS011;11909;52.516;13.564;2023-01-26T05:30:53;37.53;;;18.08;;
23472;SDS011;11909;52.516;13.564;2023-01-26T05:33:21;39.28;;;18.77;;
23472;SDS011;11909;52.516;13.564;2023-01-26T05:35:49;42.35;;;20.67;;
23472;SDS011;11909;52.516;13.564;2023-01-26T05:38:17;46.28;;;21.50;;
23472;SDS011;11909;52.516;13.564;2023-01-26T05:40:47;41.22;;;20.05;;
23472;SDS011;11909;52.516;13.564;2023-01-26T05:43:14;39.55;;;19.73;;
23472;SDS011;11909;52.516;13.564;2023-01-26T05:45:42;40.70;;;20.17;;
23472;SDS011;11909;52.516;13.564;2023-01-26T05:48:10;38.30;;;18.63;;
23472;SDS011;11909;52.516;13.564;2023-01-26T05:50:38;37.55;;;18.95;;
23472;SDS011;11909;52.516;13.564;2023-01-26T05:53:05;41.00;;;20.50;;
23472;SDS011;11909;52.516;13.564;2023-01-26T05:55:33;33.35;;;18.15;;
23472;SDS011;11909;52.516;13.564;2023-01-26T05:58:02;38.28;;;18.58;;
23472;SDS011;11909;52.516;13.564;2023-01-26T06:00:30;31.13;;;17.95;;
23472;SDS011;11909;52.516;13.564;2023-01-26T06:02:57;31.75;;;17.98;;
23472;SDS011;11909;52.516;13.564;2023-01-26T06:05:25;37.33;;;20.10;;
23472;SDS011;11909;52.516;13.564;2023-01-26T06:07:53;34.42;;;19.38;;
23472;SDS011;11909;52.516;13.564;2023-01-26T06:10:20;39.13;;;20.15;;
23472;SDS011;11909;52.516;13.564;2023-01-26T06:12:48;34.88;;;18.52;;
23472;SDS011;11909;52.516;13.564;2023-01-26T06:15:17;34.08;;;16.83;;
23472;SDS011;11909;52.516;13.564;2023-01-26T06:17:45;29.80;;;16.33;;
23472;SDS011;11909;52.516;13.564;2023-01-26T06:20:13;32.03;;;16.58;;
23472;SDS011;11909;52.516;13.564;2023-01-26T06:22:40;31.10;;;17.08;;
23472;SDS011;11909;52.516;13.564;2023-01-26T06:25:08;31.20;;;16.15;;
23472;SDS011;11909;52.516;13.564;2023-01-26T06:27:36;25.98;;;15.55;;
23472;SDS011;11909;52.516;13.564;2023-01-26T06:30:08;29.92;;;15.65;;
23472;SDS011;11909;52.516;13.564;2023-01-26T06:32:38;32.35;;;14.35;;
23472;SDS011;11909;52.516;13.564;2023-01-26T06:35:06;27.70;;;15.27;;
23472;SDS011;11909;52.516;13.564;2023-01-26T06:37:34;26.73;;;15.20;;
23472;SDS011;11909;52.516;13.564;2023-01-26T06:40:02;26.92;;;14.90;;
23472;SDS011;11909;52.516;13.564;2023-01-26T06:42:30;33.58;;;16.40;;
23472;SDS011;11909;52.516;13.564;2023-01-26T06:44:58;30.33;;;17.20;;
23472;SDS011;11909;52.516;13.564;2023-01-26T06:47:26;34.85;;;18.00;;
23472;SDS011;11909;52.516;13.564;2023-01-26T06:49:55;32.67;;;17.92;;
23472;SDS011;11909;52.516;13.564;2023-01-26T06:52:26;32.83;;;18.23;;
23472;SDS011;11909;52.516;13.564;2023-01-26T06:54:57;33.65;;;18.20;;
23472;SDS011;11909;52.516;13.564;2023-01-26T06:57:26;31.48;;;16.75;;
23472;SDS011;11909;52.516;13.564;2023-01-26T06:59:54;36.80;;;17.85;;
23472;SDS011;11909;52.516;13.564;2023-01-26T07:02:22;34.72;;;17.80;;
23472;SDS011;11909;52.516;13.564;2023-01-26T07:04:50;29.33;;;15.90;;
23472;SDS011;11909;52.516;13.564;2023-01-26T07:07:19;34.38;;;17.05;;
23472;SDS011;11909;52.516;13.564;2023-01-26T07:09:47;30.75;;;16.08;;
23472;SDS011;11909;52.516;13.564;2023-01-26T07:12:15;31.92;;;16.77;;
23472;SDS011;11909;52.516;13.564;2023-01-26T07:14:42;31.55;;;16.35;;
23472;SDS011;11909;52.516;13.564;2023-01-26T07:17:10;35.58;;;16.98;;
23472;SDS011;11909;52.516;13.564;2023-01-26T07:19:38;33.72;;;16.55;;
23472;SDS011;11909;52.516;13.564;2023-01-26T07:22:05;28.98;;;16.00;;
23472;SDS011;11909;52.516;13.564;2023-01-26T07:24:34;31.67;;;15.13;;
23472;SDS011;11909;52.516;13.564;2023-01-26T07:27:02;28.92;;;15.15;;
23472;SDS011;11909;52.516;13.564;2023-01-26T07:29:30;26.33;;;15.70;;
23472;SDS011;11909;52.516;13.564;2023-01-26T07:31:58;30.75;;;15.80;;
23472;SDS011;11909;52.516;13.564;2023-01-26T07:34:25;30.40;;;15.30;;
23472;SDS011;11909;52.516;13.564;2023-01-26T07:36:53;28.58;;;15.20;;
23472;SDS011;11909;52.516;13.564;2023-01-26T07:39:21;28.75;;;15.13;;
23472;SDS011;11909;52.516;13.564;2023-01-26T07:41:50;27.67;;;14.55;;
23472;SDS011;11909;52.516;13.564;2023-01-26T07:44:18;31.60;;;15.10;;
23472;SDS011;11909;52.516;13.564;2023-01-26T07:46:45;29.98;;;15.02;;
23472;SDS011;11909;52.516;13.564;2023-01-26T07:49:13;30.00;;;13.95;;
23472;SDS011;11909;52.516;13.564;2023-01-26T07:51:41;24.42;;;13.18;;
23472;SDS011;11909;52.516;13.564;2023-01-26T07:54:09;28.45;;;13.25;;
23472;SDS011;11909;52.516;13.564;2023-01-26T07:56:38;27.50;;;13.85;;
23472;SDS011;11909;52.516;13.564;2023-01-26T07:59:08;25.55;;;13.20;;
23472;SDS011;11909;52.516;13.564;2023-01-26T08:01:37;24.85;;;12.88;;
23472;SDS011;11909;52.516;13.564;2023-01-26T08:04:05;31.23;;;14.57;;
23472;SDS011;11909;52.516;13.564;2023-01-26T08:06:32;25.83;;;13.13;;
23472;SDS011;11909;52.516;13.564;2023-01-26T08:09:00;25.45;;;13.85;;
23472;SDS011;11909;52.516;13.564;2023-01-26T08:11:28;28.67;;;13.80;;
23472;SDS011;11909;52.516;13.564;2023-01-26T08:13:55;24.88;;;13.05;;
23472;SDS011;11909;52.516;13.564;2023-01-26T08:16:24;24.48;;;13.02;;
23472;SDS011;11909;52.516;13.564;2023-01-26T08:18:52;23.40;;;12.77;;
23472;SDS011;11909;52.516;13.564;2023-01-26T08:21:20;25.52;;;12.93;;
23472;SDS011;11909;52.516;13.564;2023-01-26T08:23:48;28.65;;;14.77;;
23472;SDS011;11909;52.516;13.564;2023-01-26T08:26:16;27.90;;;13.68;;
23472;SDS011;11909;52.516;13.564;2023-01-26T08:28:46;26.17;;;13.13;;
23472;SDS011;11909;52.516;13.564;2023-01-26T08:31:16;23.30;;;12.60;;
23472;SDS011;11909;52.516;13.564;2023-01-26T08:33:47;24.55;;;13.02;;
23472;SDS011;11909;52.516;13.564;2023-01-26T08:36:16;20.98;;;11.82;;
23472;SDS011;11909;52.516;13.564;2023-01-26T08:38:48;20.35;;;11.48;;
23472;SDS011;11909;52.516;13.564;2023-01-26T08:41:16;23.25;;;12.02;;
23472;SDS011;11909;52.516;13.564;2023-01-26T08:43:43;21.50;;;11.75;;
23472;SDS011;11909;52.516;13.564;2023-01-26T08:46:11;21.13;;;11.18;;
23472;SDS011;11909;52.516;13.564;2023-01-26T08:48:39;22.70;;;10.88;;
23472;SDS011;11909;52.516;13.564;2023-01-26T08:51:08;21.05;;;11.45;;
23472;SDS011;11909;52.516;13.564;2023-01-26T08:53:36;21.92;;;11.45;;
23472;SDS011;11909;52.516;13.564;2023-01-26T08:56:04;22.88;;;11.25;;
23472;SDS011;11909;52.516;13.564;2023-01-26T08:58:34;23.05;;;11.90;;
23472;SDS011;11909;52.516;13.564;2023-01-26T09:01:03;19.83;;;11.10;;
23472;SDS011;11909;52.516;13.564;2023-01-26T09:03:31;21.65;;;11.80;;
23472;SDS011;11909;52.516;13.564;2023-01-26T09:05:59;24.63;;;11.23;;
23472;SDS011;11909;52.516;13.564;2023-01-26T09:08:28;34.35;;;18.35;;
23472;SDS011;11909;52.516;13.564;2023-01-26T09:10:57;33.72;;;19.08;;
23472;SDS011;11909;52.516;13.564;2023-01-26T09:13:24;22.00;;;12.02;;
23472;SDS011;11909;52.516;13.564;2023-01-26T09:15:52;18.25;;;10.63;;
23472;SDS011;11909;52.516;13.564;2023-01-26T09:18:20;21.55;;;11.55;;
23472;SDS011;11909;52.516;13.564;2023-01-26T09:20:48;19.65;;;10.63;;
23472;SDS011;11909;52.516;13.564;2023-01-26T09:23:16;18.30;;;10.30;;
23472;SDS011;11909;52.516;13.564;2023-01-26T09:25:45;19.08;;;10.73;;
23472;SDS011;11909;52.516;13.564;2023-01-26T09:28:19;20.50;;;10.77;;
23472;SDS011;11909;52.516;13.564;2023-01-26T09:30:46;20.75;;;10.90;;
23472;SDS011;11909;52.516;13.564;2023-01-26T09:33:14;20.95;;;10.63;;
23472;SDS011;11909;52.516;13.564;2023-01-26T09:35:43;19.42;;;10.85;;
23472;SDS011;11909;52.516;13.564;2023-01-26T09:38:11;24.27;;;13.48;;
23472;SDS011;11909;52.516;13.564;2023-01-26T09:40:43;31.63;;;15.57;;
23472;SDS011;11909;52.516;13.564;2023-01-26T09:43:24;22.23;;;12.95;;
23472;SDS011;11909;52.516;13.564;2023-01-26T09:46:02;19.98;;;11.60;;
23472;SDS011;11909;52.516;13.564;2023-01-26T09:48:40;18.27;;;9.88;;
23472;SDS011;11909;52.516;13.564;2023-01-26T09:51:16;19.63;;;10.52;;
23472;SDS011;11909;52.516;13.564;2023-01-26T09:53:51;18.08;;;10.30;;
23472;SDS011;11909;52.516;13.564;2023-01-26T09:56:24;17.15;;;10.75;;
23472;SDS011;11909;52.516;13.564;2023-01-26T09:58:56;16.48;;;9.93;;
23472;SDS011;11909;52.516;13.564;2023-01-26T10:01:34;18.90;;;10.32;;
23472;SDS011;11909;52.516;13.564;2023-01-26T10:04:09;17.40;;;9.25;;
23472;SDS011;11909;52.516;13.564;2023-01-26T10:06:42;21.75;;;11.73;;
23472;SDS011;11909;52.516;13.564;2023-01-26T10:09:12;29.23;;;14.38;;
23472;SDS011;11909;52.516;13.564;2023-01-26T10:11:44;16.27;;;10.13;;
23472;SDS011;11909;52.516;13.564;2023-01-26T10:14:16;18.23;;;9.88;;
23472;SDS011;11909;52.516;13.564;2023-01-26T10:16:48;16.17;;;8.95;;
23472;SDS011;11909;52.516;13.564;2023-01-26T10:19:21;16.27;;;10.10;;
23472;SDS011;11909;52.516;13.564;2023-01-26T10:21:58;16.48;;;10.25;;
23472;SDS011;11909;52.516;13.564;2023-01-26T10:24:29;20.02;;;9.95;;
23472;SDS011;11909;52.516;13.564;2023-01-26T10:27:00;18.08;;;10.38;;
23472;SDS011;11909;52.516;13.564;2023-01-26T10:29:28;18.48;;;10.43;;
23472;SDS011;11909;52.516;13.564;2023-01-26T10:31:56;20.95;;;10.60;;
23472;SDS011;11909;52.516;13.564;2023-01-26T10:34:25;18.38;;;10.40;;
23472;SDS011;11909;52.516;13.564;2023-01-26T10:36:57;20.02;;;11.98;;
23472;SDS011;11909;52.516;13.564;2023-01-26T10:39:28;18.33;;;11.13;;
23472;SDS011;11909;52.516;13.564;2023-01-26T10:41:57;21.70;;;10.93;;
23472;SDS011;11909;52.516;13.564;2023-01-26T10:44:33;16.08;;;10.20;;
23472;SDS011;11909;52.516;13.564;2023-01-26T10:47:05;17.13;;;10.48;;
23472;SDS011;11909;52.516;13.564;2023-01-26T10:49:42;66.13;;;28.35;;
23472;SDS011;11909;52.516;13.564;2023-01-26T10:52:13;21.27;;;12.32;;
23472;SDS011;11909;52.516;13.564;2023-01-26T10:54:43;21.35;;;11.43;;
23472;SDS011;11909;52.516;13.564;2023-01-26T10:57:16;18.70;;;11.43;;
23472;SDS011;11909;52.516;13.564;2023-01-26T10:59:49;17.52;;;10.43;;
23472;SDS011;11909;52.516;13.564;2023-01-26T11:02:21;19.98;;;11.82;;
23472;SDS011;11909;52.516;13.564;2023-01-26T11:05:18;16.95;;;10.88;;
23472;SDS011;11909;52.516;13.564;2023-01-26T11:07:47;31.73;;;17.38;;
23472;SDS011;11909;52.516;13.564;2023-01-26T11:10:21;33.42;;;18.75;;
23472;SDS011;11909;52.516;13.564;2023-01-26T11:13:04;33.15;;;17.52;;
23472;SDS011;11909;52.516;13.564;2023-01-26T11:15:37;19.55;;;10.80;;
23472;SDS011;11909;52.516;13.564;2023-01-26T11:18:10;19.67;;;11.07;;
23472;SDS011;11909;52.516;13.564;2023-01-26T11:20:45;18.55;;;11.38;;
23472;SDS011;11909;52.516;13.564;2023-01-26T11:23:19;17.23;;;11.32;;
23472;SDS011;11909;52.516;13.564;2023-01-26T11:29:05;20.13;;;12.30;;
23472;SDS011;11909;52.516;13.564;2023-01-26T11:31:48;20.02;;;11.48;;
23472;SDS011;11909;52.516;13.564;2023-01-26T11:34:28;19.50;;;11.57;;
23472;SDS011;11909;52.516;13.564;2023-01-26T11:37:07;21.25;;;12.05;;
23472;SDS011;11909;52.516;13.564;2023-01-26T11:40:00;21.33;;;11.45;;
23472;SDS011;11909;52.516;13.564;2023-01-26T11:42:39;24.17;;;11.77;;
23472;SDS011;11909;52.516;13.564;2023-01-26T11:45:20;19.75;;;11.38;;
23472;SDS011;11909;52.516;13.564;2023-01-26T11:47:59;23.67;;;12.23;;
23472;SDS011;11909;52.516;13.564;2023-01-26T11:50:36;24.20;;;13.90;;
23472;SDS011;11909;52.516;13.564;2023-01-26T11:56:15;25.25;;;14.73;;
23472;SDS011;11909;52.516;13.564;2023-01-26T11:58:50;23.67;;;13.10;;
23472;SDS011;11909;52.516;13.564;2023-01-26T12:01:24;25.77;;;13.38;;
23472;SDS011;11909;52.516;13.564;2023-01-26T12:03:57;24.63;;;13.90;;
23472;SDS011;11909;52.516;13.564;2023-01-26T12:06:26;24.60;;;13.05;;
23472;SDS011;11909;52.516;13.564;2023-01-26T12:08:59;22.95;;;12.55;;
23472;SDS011;11909;52.516;13.564;2023-01-26T12:11:32;21.98;;;12.15;;
23472;SDS011;11909;52.516;13.564;2023-01-26T12:14:07;20.63;;;12.70;;
23472;SDS011;11909;52.516;13.564;2023-01-26T12:16:48;21.65;;;11.93;;
23472;SDS011;11909;52.516;13.564;2023-01-26T12:19:46;26.27;;;14.07;;
23472;SDS011;11909;52.516;13.564;2023-01-26T12:22:19;25.20;;;13.77;;
23472;SDS011;11909;52.516;13.564;2023-01-26T12:24:53;24.42;;;14.52;;
23472;SDS011;11909;52.516;13.564;2023-01-26T12:27:45;26.80;;;14.32;;
23472;SDS011;11909;52.516;13.564;2023-01-26T12:30:28;41.80;;;21.40;;
23472;SDS011;11909;52.516;13.564;2023-01-26T12:33:01;65.05;;;33.40;;
23472;SDS011;11909;52.516;13.564;2023-01-26T12:35:37;31.52;;;15.75;;
23472;SDS011;11909;52.516;13.564;2023-01-26T12:38:15;23.58;;;12.38;;
23472;SDS011;11909;52.516;13.564;2023-01-26T12:40:51;20.27;;;10.88;;
23472;SDS011;11909;52.516;13.564;2023-01-26T12:43:34;18.83;;;11.68;;
23472;SDS011;11909;52.516;13.564;2023-01-26T12:46:12;21.42;;;11.18;;
23472;SDS011;11909;52.516;13.564;2023-01-26T12:48:42;17.88;;;10.77;;
23472;SDS011;11909;52.516;13.564;2023-01-26T12:51:17;18.33;;;10.38;;
23472;SDS011;11909;52.516;13.564;2023-01-26T12:53:50;18.52;;;10.25;;
23472;SDS011;11909;52.516;13.564;2023-01-26T12:56:24;15.93;;;9.95;;
23472;SDS011;11909;52.516;13.564;2023-01-26T12:58:58;16.45;;;9.85;;
23472;SDS011;11909;52.516;13.564;2023-01-26T13:01:36;16.92;;;9.50;;
23472;SDS011;11909;52.516;13.564;2023-01-26T13:04:07;14.88;;;9.65;;
23472;SDS011;11909;52.516;13.564;2023-01-26T13:06:38;17.90;;;10.30;;
23472;SDS011;11909;52.516;13.564;2023-01-26T13:09:20;16.27;;;9.87;;
23472;SDS011;11909;52.516;13.564;2023-01-26T13:11:50;17.77;;;10.93;;
23472;SDS011;11909;52.516;13.564;2023-01-26T13:14:29;16.02;;;10.30;;
23472;SDS011;11909;52.516;13.564;2023-01-26T13:26:20;17.10;;;8.73;;
23472;SDS011;11909;52.516;13.564;2023-01-26T13:29:31;15.82;;;9.48;;
23472;SDS011;11909;52.516;13.564;2023-01-26T13:32:15;13.02;;;8.35;;
23472;SDS011;11909;52.516;13.564;2023-01-26T13:35:23;16.17;;;10.35;;
23472;SDS011;11909;52.516;13.564;2023-01-26T13:37:55;13.23;;;8.88;;
23472;SDS011;11909;52.516;13.564;2023-01-26T13:40:27;13.60;;;8.73;;
23472;SDS011;11909;52.516;13.564;2023-01-26T13:43:00;14.60;;;8.68;;
23472;SDS011;11909;52.516;13.564;2023-01-26T13:45:49;14.07;;;9.00;;
23472;SDS011;11909;52.516;13.564;2023-01-26T13:48:27;13.68;;;8.77;;
23472;SDS011;11909;52.516;13.564;2023-01-26T13:51:02;14.47;;;8.80;;
23472;SDS011;11909;52.516;13.564;2023-01-26T13:53:33;14.37;;;9.17;;
23472;SDS011;11909;52.516;13.564;2023-01-26T13:56:04;16.35;;;9.68;;
23472;SDS011;11909;52.516;13.564;2023-01-26T13:58:34;14.60;;;8.50;;
23472;SDS011;11909;52.516;13.564;2023-01-26T14:01:03;19.13;;;9.60;;
23472;SDS011;11909;52.516;13.564;2023-01-26T14:03:32;15.30;;;10.48;;
23472;SDS011;11909;52.516;13.564;2023-01-26T14:06:00;14.35;;;9.65;;
23472;SDS011;11909;52.516;13.564;2023-01-26T14:08:31;13.63;;;9.23;;
23472;SDS011;11909;52.516;13.564;2023-01-26T14:11:00;14.57;;;9.25;;
23472;SDS011;11909;52.516;13.564;2023-01-26T14:13:32;15.20;;;9.50;;
23472;SDS011;11909;52.516;13.564;2023-01-26T14:16:04;17.38;;;9.40;;
23472;SDS011;11909;52.516;13.564;2023-01-26T14:18:34;18.10;;;10.43;;
23472;SDS011;11909;52.516;13.564;2023-01-26T14:21:02;17.23;;;9.35;;
23472;SDS011;11909;52.516;13.564;2023-01-26T14:23:32;15.70;;;9.38;;
23472;SDS011;11909;52.516;13.564;2023-01-26T14:26:02;16.98;;;10.13;;
23472;SDS011;11909;52.516;13.564;2023-01-26T14:28:32;13.95;;;9.07;;
23472;SDS011;11909;52.516;13.564;2023-01-26T14:31:05;13.60;;;9.63;;
23472;SDS011;11909;52.516;13.564;2023-01-26T14:33:37;13.55;;;8.95;;
23472;SDS011;11909;52.516;13.564;2023-01-26T14:36:05;14.05;;;8.80;;
23472;SDS011;11909;52.516;13.564;2023-01-26T14:38:40;13.95;;;8.85;;
23472;SDS011;11909;52.516;13.564;2023-01-26T14:41:11;13.88;;;9.05;;
23472;SDS011;11909;52.516;13.564;2023-01-26T14:43:43;13.55;;;9.05;;
23472;SDS011;11909;52.516;13.564;2023-01-26T14:46:14;15.05;;;8.65;;
23472;SDS011;11909;52.516;13.564;2023-01-26T14:48:45;14.23;;;8.73;;
23472;SDS011;11909;52.516;13.564;2023-01-26T14:51:18;15.07;;;9.63;;
23472;SDS011;11909;52.516;13.564;2023-01-26T14:53:48;13.63;;;9.07;;
23472;SDS011;11909;52.516;13.564;2023-01-26T14:56:18;16.55;;;10.30;;